チタ の空港の天気 - METARとTAF

チタ・カダラ空港 ( UIAA / HTA ) - ロシア チタ
飛行場実況気象(Metar)
観測時間01/17 03:30 YAKT (01/16 18:30 UTC)
風向・風速北北西 2m/s
視程10km以上
天気現象
なし
気温-31℃
湿度75%
気圧1026hPa
METARUIAA 161830Z AUTO 34002MPS 9999 NCD M31/M34 Q1026 RMK QFE711/0948
過去の天気等 Google飛行場航空写真 Wunderground天気予報

過去48時間のMETAR

飛行場予報(TAF)
発表時間: 1/17 02:00 YAKT (1/16 17:00 UTC)
予報対象時間: 17日3時 YAKT ~ 18日3時 YAKT
風向・風速東 3m/s
視程3100m
天気現象もや 煙
なし
17日3時 YAKT ~ 17日11時 YAKT に一時的に
視程500m
天気現象
全天を覆う雲 鉛直視程 30m
17日11時 YAKT ~ 17日13時 YAKT に徐々に
視程10km以上
天気現象運行に影響にある天気現象が終了
TAF COR UIAA 161700Z 1618/1718 08003MPS 3100 BR FU NSC
TEMPO 1618/1702 0500 FG VV001
BECMG 1702/1704 9999 NSW